Time;durP1;ratioP1;P1;durP2;ratioP2;P2;SDS_P1;SDS_P2;PMS_P1;PMS_P2;Temp;Humidity;BMP_temperature;BMP_pressure;BME280_temperature;BME280_humidity;BME280_pressure;Samples;Min_cycle;Max_cycle;Signal;HPM_P1;HPM_P2
2022/04/30 00:43:36;;;;;;;5.45;2.80;;;9.60;56.70;;;;;;4706354;30;20050;-92
2022/04/30 00:48:08;;;;;;;;;;;;;;;;;;;;;
2022/04/30 00:52:13;;;;;;;5.20;2.45;;;9.60;67.80;;;;;;4753351;29;20081;-93
2022/04/30 01:03:43;;;;;;;3.42;1.98;;;9.20;99.90;;;;;;4792266;29;20498;-93
2022/04/30 01:07:14;;;;;;;;;;;;;;;;;;;;;
2022/04/30 01:10:27;;;;;;;6.75;2.42;;;9.60;94.10;;;;;;4803320;29;20037;-93
2022/04/30 01:13:25;;;;;;;3.55;2.45;;;9.70;92.30;;;;;;4861945;29;20080;-92
2022/04/30 01:43:55;;;;;;;6.00;2.33;;;9.50;85.70;;;;;;4842916;29;20164;-93
2022/04/30 01:46:52;;;;;;;3.30;2.03;;;9.50;78.40;;;;;;4829094;29;20106;-92
2022/04/30 01:49:50;;;;;;;3.30;2.47;;;9.40;88.80;;;;;;4819954;29;20516;-93
2022/04/30 01:53:36;;;;;;;7.13;1.88;;;9.40;85.00;;;;;;4817807;29;20137;-93
2022/04/30 01:57:33;;;;;;;5.22;2.40;;;9.50;81.40;;;;;;4842358;29;20179;-92
2022/04/30 02:00:41;;;;;;;5.75;2.13;;;9.50;81.80;;;;;;4823791;29;20064;-92
2022/04/30 02:04:29;;;;;;;;;;;;;;;;;;;;;
2022/04/30 02:11:40;;;;;;;8.52;2.80;;;9.60;72.10;;;;;;4798901;29;20050;-93
2022/04/30 02:15:50;;;;;;;;;;;;;;;;;;;;;
2022/04/30 02:24:19;;;;;;;4.80;1.92;;;9.50;78.20;;;;;;4782565;29;20043;-93
2022/04/30 02:37:41;;;;;;;3.72;1.85;;;9.60;76.70;;;;;;4872148;24;20295;-93
2022/04/30 02:45:03;;;;;;;;;;;;;;;;;;;;;
2022/04/30 02:48:15;;;;;;;2.47;2.03;;;9.60;86.00;;;;;;4861157;29;20045;-91
2022/04/30 02:52:01;;;;;;;6.38;3.00;;;9.60;69.40;;;;;;4847417;29;20054;-93
2022/04/30 02:55:22;;;;;;;2.53;1.95;;;9.70;72.50;;;;;;4770425;30;20051;-93
2022/04/30 03:02:00;;;;;;;4.28;2.08;;;9.70;68.40;;;;;;4769883;30;20068;-94
2022/04/30 04:03:22;;;;;;;6.05;2.97;;;9.50;59.00;;;;;;4842240;29;20058;-92
2022/04/30 04:35:50;;;;;;;4.78;3.20;;;9.60;51.40;;;;;;4843085;29;20058;-93
2022/04/30 04:39:26;;;;;;;6.15;2.42;;;9.60;50.20;;;;;;4843483;29;20099;-92
2022/04/30 04:42:44;;;;;;;3.63;2.40;;;9.60;51.90;;;;;;4840343;29;20046;-92
2022/04/30 04:46:07;;;;;;;3.03;2.70;;;9.60;48.30;;;;;;4822656;29;20058;-91
2022/04/30 04:49:16;;;;;;;4.47;2.20;;;9.50;47.40;;;;;;4832833;29;20144;-91
2022/04/30 04:51:43;;;;;;;4.95;2.40;;;9.50;46.40;;;;;;4828798;29;20061;-91
2022/04/30 04:54:16;;;;;;;5.70;3.05;;;9.50;46.70;;;;;;4843391;29;20500;-90
2022/04/30 04:56:48;;;;;;;3.78;2.35;;;9.50;46.00;;;;;;4844115;29;20106;-90
2022/04/30 04:59:23;;;;;;;3.72;2.70;;;9.50;44.10;;;;;;4843314;29;20053;-91
2022/04/30 05:01:54;;;;;;;4.30;2.90;;;9.50;45.90;;;;;;4844429;29;20106;-91
2022/04/30 05:04:55;;;;;;;;;;;;;;;;;;;;;
2022/04/30 05:07:53;;;;;;;3.78;1.90;;;9.40;45.30;;;;;;4844042;29;20413;-93
2022/04/30 05:10:30;;;;;;;6.22;3.15;;;9.40;46.10;;;;;;4829151;29;20081;-92
2022/04/30 05:13:07;;;;;;;4.55;2.72;;;9.40;54.10;;;;;;4843874;29;20057;-92
2022/04/30 05:15:50;;;;;;;;;;;9.30;55.10;;;;;;4830234;29;20456;-92
2022/04/30 05:18:51;;;;;;;3.72;2.53;;;9.30;52.70;;;;;;4829265;29;20024;-92
2022/04/30 05:45:41;;;;;;;3.53;2.45;;;9.50;52.30;;;;;;4752054;29;20059;-92
2022/04/30 05:48:21;;;;;;;5.18;2.55;;;9.60;52.60;;;;;;4790180;29;20058;-91
2022/04/30 09:03:00;;;;;;;3.58;1.13;;;11.20;22.00;;;;;;4879706;29;20052;-89
2022/04/30 09:05:37;;;;;;;7.93;1.52;;;11.20;20.90;;;;;;4866584;29;20061;-92
2022/04/30 09:08:07;;;;;;;6.28;1.77;;;11.30;22.20;;;;;;4861712;29;20045;-91
2022/04/30 09:10:42;;;;;;;6.03;1.55;;;11.40;17.50;;;;;;4847286;29;20065;-91
2022/04/30 09:13:14;;;;;;;;;;;11.40;13.80;;;;;;4863661;29;20038;-91
2022/04/30 09:15:46;;;;;;;3.67;1.13;;;11.50;17.00;;;;;;4862481;29;19931;-90
2022/04/30 09:18:15;;;;;;;5.47;1.60;;;11.50;14.00;;;;;;4861857;29;20124;-91
2022/04/30 09:20:51;;;;;;;2.53;1.42;;;11.60;9.70;;;;;;4846593;29;20051;-91
2022/04/30 09:23:30;;;;;;;2.60;1.27;;;11.70;10.80;;;;;;4861380;29;20053;-91
2022/04/30 09:26:01;;;;;;;3.35;1.48;;;11.80;11.20;;;;;;4862216;29;20050;-91
2022/04/30 09:28:32;;;;;;;4.15;1.05;;;11.80;5.50;;;;;;4861918;29;20053;-91
2022/04/30 09:31:13;;;;;;;2.05;1.23;;;11.90;3.30;;;;;;4843251;29;20412;-91
2022/04/30 09:37:41;;;;;;;4.30;1.38;;;11.90;1.00;;;;;;4846963;29;20419;-91
2022/04/30 09:39:40;;;;;;;1.85;1.30;;;12.10;1.00;;;;;;4856207;29;20062;-91
2022/04/30 09:42:14;;;;;;;1.83;0.82;;;12.10;1.00;;;;;;4847221;29;20060;-91
2022/04/30 09:44:57;;;;;;;4.88;1.13;;;12.10;1.00;;;;;;4861594;29;20054;-91
2022/04/30 09:53:56;;;;;;;3.25;1.60;;;12.10;1.00;;;;;;4846718;29;20054;-89
2022/04/30 10:05:14;;;;;;;5.13;1.60;;;12.00;1.00;;;;;;4854900;29;20382;-89
2022/04/30 10:09:01;;;;;;;2.22;1.40;;;12.20;1.00;;;;;;4838060;29;20496;-92
2022/04/30 10:16:35;;;;;;;4.82;1.33;;;12.30;1.00;;;;;;4806074;29;20505;-93
2022/04/30 10:26:59;;;;;;;2.70;1.17;;;12.00;1.00;;;;;;4504945;27;20052;-93
2022/04/30 10:30:24;;;;;;;1.67;1.38;;;12.20;1.00;;;;;;4866943;29;20128;-92
2022/04/30 10:33:20;;;;;;;1.52;1.25;;;12.30;1.00;;;;;;4883080;29;20052;-93
2022/04/30 10:42:50;;;;;;;4.63;1.60;;;11.50;1.00;;;;;;4808968;29;20402;-92
2022/04/30 10:50:18;;;;;;;;;;;;;;;;;;;;;
2022/04/30 10:57:23;;;;;;;1.85;1.23;;;12.20;1.00;;;;;;4818773;29;20454;-93
2022/04/30 11:00:12;;;;;;;2.35;1.70;;;12.40;1.00;;;;;;4811811;29;20065;-92
2022/04/30 11:03:07;;;;;;;3.03;1.38;;;12.40;1.00;;;;;;4825189;29;20457;-93
2022/04/30 11:06:14;;;;;;;2.05;1.42;;;12.40;1.00;;;;;;4827237;29;20058;-92
2022/04/30 11:09:06;;;;;;;2.78;1.73;;;12.30;1.00;;;;;;4798772;29;20058;-93
2022/04/30 11:11:58;;;;;;;;;;;;;;;;;;;;;
2022/04/30 11:15:07;;;;;;;3.90;1.77;;;12.50;1.00;;;;;;4864378;29;20050;-93
2022/04/30 11:18:03;;;;;;;2.58;1.40;;;12.60;1.00;;;;;;4876884;29;20109;-92
2022/04/30 11:20:42;;;;;;;3.25;1.65;;;12.70;1.00;;;;;;4864484;29;20119;-93
2022/04/30 11:23:43;;;;;;;2.40;1.73;;;12.70;1.00;;;;;;4876743;29;20053;-93
2022/04/30 11:26:43;;;;;;;8.30;2.63;;;12.50;1.00;;;;;;4852362;29;20134;-93
2022/04/30 13:19:55;;;;;;;2.10;1.55;;;13.60;1.00;;;;;;6113407;22;3431824;-89
2022/04/30 13:30:29;;;;;;;2.30;2.00;;;13.30;1.00;;;;;;6213467;22;20127;-89
2022/04/30 13:57:19;;;;;;;3.78;2.58;;;13.20;1.00;;;;;;6190302;23;20075;-89
2022/04/30 14:00:21;;;;;;;5.55;2.67;;;13.10;1.00;;;;;;6150634;23;20022;-89
2022/04/30 14:03:40;;;;;;;5.03;2.03;;;13.40;1.00;;;;;;6091823;23;20026;-90
2022/04/30 14:07:34;;;;;;;5.97;2.83;;;13.50;1.00;;;;;;6101778;23;20462;-91
2022/04/30 14:10:10;;;;;;;6.22;3.20;;;13.40;1.00;;;;;;6096683;23;20568;-81
2022/04/30 14:12:45;;;;;;;6.40;2.88;;;13.30;1.00;;;;;;6071695;23;20034;-82
2022/04/30 14:15:13;;;;;;;4.88;2.85;;;13.50;1.00;;;;;;6096125;23;20050;-82
2022/04/30 14:20:27;;;;;;;6.45;3.47;;;13.50;1.00;;;;;;6096409;23;20030;-85
2022/04/30 14:23:15;;;;;;;6.85;3.53;;;13.10;1.00;;;;;;6095935;23;20033;-85
2022/04/30 14:25:45;;;;;;;4.50;3.38;;;13.30;1.00;;;;;;6095809;23;20064;-85
2022/04/30 14:28:12;;;;;;;4.57;3.30;;;13.20;1.00;;;;;;6096368;23;20030;-85
2022/04/30 14:30:41;;;;;;;5.60;3.58;;;13.40;1.00;;;;;;6072669;23;20046;-86
2022/04/30 15:58:14;;;;;;;5.18;2.55;;;18.70;1.00;;;;;;6245313;22;20031;-92
2022/04/30 16:02:08;;;;;;;4.50;2.60;;;18.10;1.00;;;;;;6142383;23;20028;-92
2022/04/30 16:09:57;;;;;;;3.58;2.80;;;18.30;1.00;;;;;;5925795;24;20082;-89
2022/04/30 16:25:11;;;;;;;5.75;3.03;;;17.90;1.00;;;;;;6057523;23;20065;-90
2022/04/30 16:28:25;;;;;;;4.53;2.67;;;17.70;1.00;;;;;;6050197;23;20023;-90
2022/04/30 16:34:51;;;;;;;6.30;3.78;;;17.70;1.00;;;;;;5964394;24;20036;-89
2022/04/30 16:37:47;;;;;;;6.95;3.40;;;17.50;1.00;;;;;;5957991;24;20020;-90
2022/04/30 16:40:44;;;;;;;4.55;2.85;;;17.40;1.00;;;;;;5980931;24;20028;-90
2022/04/30 16:43:28;;;;;;;6.18;3.35;;;17.30;1.00;;;;;;6082462;23;20014;-91
2022/04/30 16:46:58;;;;;;;;;;;;;;;;;;;;;
2022/04/30 17:05:12;;;;;;;5.88;2.95;;;16.20;1.00;;;;;;6245885;22;20062;-91
2022/04/30 17:08:49;;;;;;;4.43;3.03;;;16.00;1.00;;;;;;6160586;23;20029;-92
2022/04/30 17:12:40;;;;;;;;;;;;;;;;;;;;;
2022/04/30 17:15:30;;;;;;;4.90;3.30;;;15.80;1.00;;;;;;6186005;23;20104;-91
2022/04/30 17:18:19;;;;;;;4.53;2.88;;;15.80;1.00;;;;;;6185565;23;20072;-91
2022/04/30 17:21:21;;;;;;;7.93;2.93;;;15.50;1.00;;;;;;6185240;23;20025;-90
2022/04/30 17:23:50;;;;;;;;;;;15.50;1.00;;;;;;6157776;23;20285;-89
2022/04/30 17:30:26;;;;;;;8.35;3.25;;;15.70;1.00;;;;;;6150582;23;20352;-90
2022/04/30 17:43:52;;;;;;;5.15;3.58;;;15.60;1.00;;;;;;6243845;22;20352;-91
2022/04/30 17:46:50;;;;;;;4.15;2.75;;;15.20;1.00;;;;;;6223447;23;20107;-92
2022/04/30 17:49:45;;;;;;;5.10;3.28;;;15.10;1.00;;;;;;6224385;23;20046;-91
2022/04/30 17:52:26;;;;;;;5.53;3.35;;;14.80;1.00;;;;;;6247365;23;20038;-92
2022/04/30 17:55:21;;;;;;;7.72;3.63;;;14.60;1.00;;;;;;6212851;23;20042;-91
2022/04/30 17:58:28;;;;;;;3.97;3.05;;;14.60;1.00;;;;;;6248725;23;20100;-92
2022/04/30 18:01:07;;;;;;;5.30;2.75;;;14.90;1.00;;;;;;6247514;23;20347;-90
2022/04/30 18:03:45;;;;;;;4.70;2.83;;;14.90;1.00;;;;;;6247419;23;20080;-91
2022/04/30 18:06:15;;;;;;;6.65;3.50;;;14.60;1.00;;;;;;6196566;23;20023;-89
2022/04/30 18:09:02;;;;;;;4.50;2.88;;;14.50;1.00;;;;;;6224927;23;20091;-91
2022/04/30 18:12:01;;;;;;;3.35;2.95;;;14.50;1.00;;;;;;6224589;23;20024;-91
2022/04/30 18:15:15;;;;;;;4.13;3.22;;;14.40;1.00;;;;;;6220353;23;20031;-93
2022/04/30 18:18:06;;;;;;;7.53;3.65;;;14.30;1.00;;;;;;6220876;23;20075;-92
2022/04/30 18:20:49;;;;;;;4.78;3.03;;;14.00;1.00;;;;;;6246692;23;20020;-93
2022/04/30 18:23:57;;;;;;;4.28;2.55;;;13.70;1.00;;;;;;6200015;23;20043;-91
2022/04/30 18:26:52;;;;;;;5.53;2.58;;;13.50;1.00;;;;;;6198594;23;20332;-92
2022/04/30 18:30:12;;;;;;;7.43;2.92;;;13.80;1.00;;;;;;6244741;23;20329;-92
2022/04/30 18:32:45;;;;;;;6.13;3.28;;;13.80;1.00;;;;;;6197772;23;20106;-90
2022/04/30 18:35:26;;;;;;;5.90;3.55;;;13.90;1.00;;;;;;6198332;23;20079;-92
2022/04/30 18:42:12;;;;;;;4.00;2.53;;;13.80;1.00;;;;;;6191409;23;20019;-92
2022/04/30 18:44:41;;;;;;;3.72;2.70;;;13.70;1.00;;;;;;6214793;23;20027;-92
2022/04/30 18:48:25;;;;;;;3.30;2.50;;;13.60;1.00;;;;;;6192371;23;20028;-92
2022/04/30 20:39:03;;;;;;;8.43;5.18;;;12.00;1.00;;;;;;6222819;23;20325;-91
2022/04/30 20:42:04;;;;;;;7.10;4.50;;;11.90;1.00;;;;;;6223000;23;20067;-93
2022/04/30 20:44:42;;;;;;;7.13;4.70;;;11.90;1.00;;;;;;6198020;23;20020;-92
2022/04/30 20:47:20;;;;;;;8.57;5.10;;;11.80;1.00;;;;;;6199295;23;20406;-92
2022/04/30 20:49:56;;;;;;;9.45;4.80;;;11.80;1.00;;;;;;6223440;23;20051;-93
2022/04/30 20:56:28;;;;;;;7.10;4.45;;;11.70;1.00;;;;;;6199144;23;20094;-93
2022/04/30 20:59:28;;;;;;;9.77;5.93;;;11.70;1.00;;;;;;6206688;23;20024;-91
2022/04/30 21:02:03;;;;;;;6.85;4.70;;;11.60;1.00;;;;;;6225154;23;20016;-91
2022/04/30 21:04:39;;;;;;;8.20;5.38;;;11.60;1.00;;;;;;6223317;23;20087;-92
2022/04/30 21:07:22;;;;;;;7.70;5.60;;;11.60;1.00;;;;;;6224014;23;20023;-92
2022/04/30 21:10:21;;;;;;;7.05;5.50;;;11.50;1.00;;;;;;6158466;23;20022;-93
2022/04/30 21:12:59;;;;;;;8.57;6.13;;;11.50;1.00;;;;;;6199214;23;20031;-92
2022/04/30 21:15:34;;;;;;;7.47;6.13;;;11.50;1.00;;;;;;6198411;23;20435;-92
2022/04/30 21:18:08;;;;;;;8.85;5.55;;;11.40;1.00;;;;;;6198625;23;20428;-91
2022/04/30 21:20:38;;;;;;;7.68;5.78;;;11.40;1.00;;;;;;6248685;23;20466;-92
2022/04/30 21:23:13;;;;;;;8.38;5.70;;;11.40;1.00;;;;;;6222372;23;20016;-92
2022/04/30 21:25:52;;;;;;;8.02;5.43;;;11.30;1.00;;;;;;6222118;23;20016;-92
2022/04/30 21:28:25;;;;;;;9.32;6.20;;;11.30;1.00;;;;;;6248792;23;20016;-92
2022/04/30 21:31:21;;;;;;;10.07;6.47;;;11.30;1.00;;;;;;6198509;23;20024;-94
2022/04/30 21:33:56;;;;;;;9.25;5.15;;;11.30;1.00;;;;;;6248831;22;20020;-90
2022/04/30 21:36:23;;;;;;;7.85;5.28;;;11.20;1.00;;;;;;6222077;23;20074;-91
2022/04/30 21:38:50;;;;;;;8.10;5.68;;;11.20;1.00;;;;;;6223343;23;20355;-92
2022/04/30 21:44:03;;;;;;;8.63;5.80;;;11.10;1.00;;;;;;6228178;23;20043;-90
2022/04/30 21:46:30;;;;;;;9.05;5.90;;;11.10;1.00;;;;;;6200538;23;20183;-92
2022/04/30 21:49:00;;;;;;;9.52;6.40;;;11.10;1.00;;;;;;6201123;23;20321;-92
2022/04/30 21:51:33;;;;;;;10.57;5.88;;;11.00;1.00;;;;;;6198271;23;20040;-92
2022/04/30 21:54:08;;;;;;;9.23;5.38;;;11.00;1.00;;;;;;6201764;22;20016;-92
2022/04/30 21:59:50;;;;;;;11.88;6.00;;;11.00;1.00;;;;;;6221909;23;20016;-91
2022/04/30 22:02:28;;;;;;;12.95;6.90;;;10.90;1.00;;;;;;6223651;23;20020;-91
2022/04/30 22:05:11;;;;;;;9.48;4.93;;;10.90;1.00;;;;;;6221467;23;20414;-91
2022/04/30 22:08:04;;;;;;;10.63;5.95;;;10.90;1.00;;;;;;6246642;22;20055;-91
2022/04/30 22:10:43;;;;;;;10.80;5.90;;;10.80;1.00;;;;;;6200317;23;20016;-92
2022/04/30 22:13:27;;;;;;;9.70;6.40;;;10.80;1.00;;;;;;6248300;23;20101;-92
2022/04/30 22:16:26;;;;;;;;;;;;;;;;;;;;;
2022/04/30 22:19:49;;;;;;;8.45;5.88;;;10.70;1.00;;;;;;6222204;23;20834;-91
2022/04/30 22:22:26;;;;;;;9.43;5.75;;;10.70;1.00;;;;;;6206209;23;20050;-92
2022/04/30 22:25:01;;;;;;;7.65;5.50;;;10.70;1.00;;;;;;6197234;23;20023;-92
2022/04/30 22:27:38;;;;;;;10.25;5.75;;;10.60;1.00;;;;;;6247983;23;20020;-92
2022/04/30 22:30:32;;;;;;;9.40;6.70;;;10.60;1.00;;;;;;6220960;23;20028;-92
2022/04/30 22:33:14;;;;;;;8.82;5.93;;;10.60;1.00;;;;;;6215370;23;20538;-92
2022/04/30 22:35:56;;;;;;;10.27;6.07;;;10.50;1.00;;;;;;6223712;23;20024;-91
2022/04/30 22:38:40;;;;;;;11.20;6.22;;;10.50;1.00;;;;;;6223664;23;20016;-92
2022/04/30 22:44:39;;;;;;;8.60;5.78;;;10.50;1.00;;;;;;6246821;22;20058;-92
2022/04/30 22:47:45;;;;;;;8.02;5.93;;;10.40;1.00;;;;;;6217225;23;20027;-91
2022/04/30 22:50:58;;;;;;;;;;;;;;;;;;;;;
2022/04/30 22:53:57;;;;;;;8.93;6.25;;;10.40;1.00;;;;;;6228695;22;20506;-91
2022/04/30 22:57:19;;;;;;;13.25;6.18;;;10.30;1.00;;;;;;6247371;22;20522;-92
2022/04/30 23:00:07;;;;;;;8.88;5.55;;;10.30;1.00;;;;;;6223977;23;20020;-91
2022/04/30 23:03:07;;;;;;;10.13;6.20;;;10.30;1.00;;;;;;6225299;23;20016;-91
2022/04/30 23:06:09;;;;;;;11.82;7.40;;;10.20;1.00;;;;;;6233849;23;20043;-91
2022/04/30 23:09:03;;;;;;;9.00;6.45;;;10.20;1.00;;;;;;6220898;23;20012;-91
2022/04/30 23:11:52;;;;;;;13.32;7.22;;;10.20;1.00;;;;;;6225133;23;20321;-91
2022/04/30 23:14:50;;;;;;;8.90;6.43;;;10.10;1.00;;;;;;6223641;23;20020;-91
2022/04/30 23:17:57;;;;;;;11.25;7.55;;;10.10;1.00;;;;;;6247429;23;20109;-91
2022/04/30 23:20:56;;;;;;;12.95;7.80;;;10.10;1.00;;;;;;6248207;23;20016;-91
2022/04/30 23:23:41;;;;;;;14.57;6.43;;;10.10;1.00;;;;;;6245916;22;20020;-91
2022/04/30 23:27:15;;;;;;;;;;;;;;;;;;;;;
2022/04/30 23:30:33;;;;;;;11.25;6.57;;;10.00;1.00;;;;;;6125764;23;20022;-93
2022/04/30 23:33:40;;;;;;;13.20;7.07;;;10.00;1.00;;;;;;6099804;23;20524;-92
2022/04/30 23:37:38;;;;;;;11.57;7.15;;;10.00;1.00;;;;;;6085412;23;20017;-92
2022/04/30 23:41:59;;;;;;;;;;;;;;;;;;;;;
2022/04/30 23:45:23;;;;;;;12.18;7.80;;;9.90;1.00;;;;;;6061899;23;20038;-92
2022/04/30 23:48:36;;;;;;;11.88;7.07;;;9.80;1.00;;;;;;6157672;22;20027;-91
2022/04/30 23:51:59;;;;;;;9.90;7.15;;;9.80;1.00;;;;;;6239193;23;20020;-92
2022/04/30 23:54:49;;;;;;;12.63;7.63;;;9.80;1.00;;;;;;6222398;23;20062;-92
